sensor_id;sensor_type;location;lat;lon;timestamp;P1;durP1;ratioP1;P2;durP2;ratioP2
11683;SDS011;5898;50.868;6.744;2022-07-15T00:01:58;4.72;;;1.50;;
11683;SDS011;5898;50.868;6.744;2022-07-15T00:04:25;2.78;;;1.42;;
11683;SDS011;5898;50.868;6.744;2022-07-15T00:06:52;2.13;;;1.30;;
11683;SDS011;5898;50.868;6.744;2022-07-15T00:09:19;2.70;;;1.15;;
11683;SDS011;5898;50.868;6.744;2022-07-15T00:11:45;2.60;;;1.13;;
11683;SDS011;5898;50.868;6.744;2022-07-15T00:14:12;2.38;;;1.10;;
11683;SDS011;5898;50.868;6.744;2022-07-15T00:16:40;2.58;;;1.40;;
11683;SDS011;5898;50.868;6.744;2022-07-15T00:19:07;4.80;;;1.27;;
11683;SDS011;5898;50.868;6.744;2022-07-15T00:21:34;1.85;;;1.10;;
11683;SDS011;5898;50.868;6.744;2022-07-15T00:24:01;3.08;;;1.50;;
11683;SDS011;5898;50.868;6.744;2022-07-15T00:26:27;2.53;;;1.08;;
11683;SDS011;5898;50.868;6.744;2022-07-15T00:28:54;2.67;;;1.20;;
11683;SDS011;5898;50.868;6.744;2022-07-15T00:31:21;1.40;;;1.10;;
11683;SDS011;5898;50.868;6.744;2022-07-15T00:33:49;2.95;;;1.30;;
11683;SDS011;5898;50.868;6.744;2022-07-15T00:36:15;2.67;;;1.20;;
11683;SDS011;5898;50.868;6.744;2022-07-15T00:38:42;4.40;;;1.20;;
11683;SDS011;5898;50.868;6.744;2022-07-15T00:41:09;3.25;;;1.10;;
11683;SDS011;5898;50.868;6.744;2022-07-15T00:43:36;2.72;;;1.48;;
11683;SDS011;5898;50.868;6.744;2022-07-15T00:46:02;3.00;;;1.45;;
11683;SDS011;5898;50.868;6.744;2022-07-15T00:48:29;2.40;;;1.20;;
11683;SDS011;5898;50.868;6.744;2022-07-15T00:50:58;5.55;;;1.90;;
11683;SDS011;5898;50.868;6.744;2022-07-15T00:53:26;3.95;;;1.60;;
11683;SDS011;5898;50.868;6.744;2022-07-15T00:55:56;3.22;;;1.40;;
11683;SDS011;5898;50.868;6.744;2022-07-15T00:58:25;3.03;;;1.25;;
11683;SDS011;5898;50.868;6.744;2022-07-15T01:00:54;4.55;;;1.27;;
11683;SDS011;5898;50.868;6.744;2022-07-15T01:03:24;4.03;;;1.50;;
11683;SDS011;5898;50.868;6.744;2022-07-15T01:05:53;3.10;;;1.17;;
11683;SDS011;5898;50.868;6.744;2022-07-15T01:08:22;2.95;;;1.60;;
11683;SDS011;5898;50.868;6.744;2022-07-15T01:10:49;4.07;;;1.40;;
11683;SDS011;5898;50.868;6.744;2022-07-15T01:13:16;2.33;;;1.33;;
11683;SDS011;5898;50.868;6.744;2022-07-15T01:15:44;3.00;;;1.55;;
11683;SDS011;5898;50.868;6.744;2022-07-15T01:18:11;3.42;;;1.60;;
11683;SDS011;5898;50.868;6.744;2022-07-15T01:20:40;3.67;;;1.60;;
11683;SDS011;5898;50.868;6.744;2022-07-15T01:23:07;2.95;;;1.55;;
11683;SDS011;5898;50.868;6.744;2022-07-15T01:25:34;5.90;;;1.65;;
11683;SDS011;5898;50.868;6.744;2022-07-15T01:28:01;2.92;;;1.80;;
11683;SDS011;5898;50.868;6.744;2022-07-15T01:30:28;2.58;;;1.40;;
11683;SDS011;5898;50.868;6.744;2022-07-15T01:32:55;2.20;;;1.30;;
11683;SDS011;5898;50.868;6.744;2022-07-15T01:35:22;3.30;;;1.38;;
11683;SDS011;5898;50.868;6.744;2022-07-15T01:37:50;3.67;;;1.30;;
11683;SDS011;5898;50.868;6.744;2022-07-15T01:40:16;3.05;;;1.33;;
11683;SDS011;5898;50.868;6.744;2022-07-15T01:42:43;2.70;;;1.40;;
11683;SDS011;5898;50.868;6.744;2022-07-15T01:45:10;1.98;;;1.50;;
11683;SDS011;5898;50.868;6.744;2022-07-15T01:47:41;2.92;;;1.52;;
11683;SDS011;5898;50.868;6.744;2022-07-15T01:50:08;3.58;;;1.60;;
11683;SDS011;5898;50.868;6.744;2022-07-15T01:52:34;4.18;;;1.55;;
11683;SDS011;5898;50.868;6.744;2022-07-15T01:55:03;3.95;;;1.60;;
11683;SDS011;5898;50.868;6.744;2022-07-15T01:57:31;2.42;;;1.70;;
11683;SDS011;5898;50.868;6.744;2022-07-15T01:59:58;2.55;;;1.48;;
11683;SDS011;5898;50.868;6.744;2022-07-15T02:02:25;3.97;;;1.85;;
11683;SDS011;5898;50.868;6.744;2022-07-15T02:04:52;4.00;;;1.63;;
11683;SDS011;5898;50.868;6.744;2022-07-15T02:07:19;2.70;;;1.80;;
11683;SDS011;5898;50.868;6.744;2022-07-15T02:09:46;4.05;;;2.10;;
11683;SDS011;5898;50.868;6.744;2022-07-15T02:12:14;2.70;;;1.50;;
11683;SDS011;5898;50.868;6.744;2022-07-15T02:14:41;2.08;;;1.88;;
11683;SDS011;5898;50.868;6.744;2022-07-15T02:17:07;3.95;;;1.60;;
11683;SDS011;5898;50.868;6.744;2022-07-15T02:19:34;2.83;;;1.70;;
11683;SDS011;5898;50.868;6.744;2022-07-15T02:22:01;2.78;;;1.70;;
11683;SDS011;5898;50.868;6.744;2022-07-15T02:24:28;4.55;;;1.67;;
11683;SDS011;5898;50.868;6.744;2022-07-15T02:26:55;4.57;;;1.88;;
11683;SDS011;5898;50.868;6.744;2022-07-15T02:29:23;3.67;;;2.00;;
11683;SDS011;5898;50.868;6.744;2022-07-15T02:31:50;2.60;;;1.60;;
11683;SDS011;5898;50.868;6.744;2022-07-15T02:34:17;1.88;;;1.30;;
11683;SDS011;5898;50.868;6.744;2022-07-15T02:36:44;3.85;;;1.98;;
11683;SDS011;5898;50.868;6.744;2022-07-15T02:39:10;4.63;;;1.92;;
11683;SDS011;5898;50.868;6.744;2022-07-15T02:41:37;4.18;;;2.10;;
11683;SDS011;5898;50.868;6.744;2022-07-15T02:44:04;4.18;;;1.60;;
11683;SDS011;5898;50.868;6.744;2022-07-15T02:46:32;3.88;;;2.15;;
11683;SDS011;5898;50.868;6.744;2022-07-15T02:48:59;3.78;;;1.75;;
11683;SDS011;5898;50.868;6.744;2022-07-15T02:51:26;2.13;;;1.70;;
11683;SDS011;5898;50.868;6.744;2022-07-15T02:53:53;3.30;;;1.80;;
11683;SDS011;5898;50.868;6.744;2022-07-15T02:56:19;3.67;;;1.83;;
11683;SDS011;5898;50.868;6.744;2022-07-15T02:58:46;6.13;;;1.75;;
11683;SDS011;5898;50.868;6.744;2022-07-15T03:01:13;3.25;;;1.80;;
11683;SDS011;5898;50.868;6.744;2022-07-15T03:03:41;2.63;;;1.85;;
11683;SDS011;5898;50.868;6.744;2022-07-15T03:06:08;2.72;;;2.22;;
11683;SDS011;5898;50.868;6.744;2022-07-15T03:08:34;5.40;;;2.10;;
11683;SDS011;5898;50.868;6.744;2022-07-15T03:11:01;7.93;;;2.65;;
11683;SDS011;5898;50.868;6.744;2022-07-15T03:13:28;3.10;;;1.80;;
11683;SDS011;5898;50.868;6.744;2022-07-15T03:15:55;5.60;;;2.05;;
11683;SDS011;5898;50.868;6.744;2022-07-15T03:18:22;6.45;;;2.10;;
11683;SDS011;5898;50.868;6.744;2022-07-15T03:20:50;6.75;;;2.25;;
11683;SDS011;5898;50.868;6.744;2022-07-15T03:23:16;3.95;;;1.85;;
11683;SDS011;5898;50.868;6.744;2022-07-15T03:25:44;4.28;;;1.75;;
11683;SDS011;5898;50.868;6.744;2022-07-15T03:28:10;5.82;;;2.03;;
11683;SDS011;5898;50.868;6.744;2022-07-15T03:30:37;3.83;;;1.63;;
11683;SDS011;5898;50.868;6.744;2022-07-15T03:33:04;7.53;;;2.22;;
11683;SDS011;5898;50.868;6.744;2022-07-15T03:35:31;6.32;;;2.83;;
11683;SDS011;5898;50.868;6.744;2022-07-15T03:37:59;5.03;;;2.38;;
11683;SDS011;5898;50.868;6.744;2022-07-15T03:40:26;3.13;;;1.65;;
11683;SDS011;5898;50.868;6.744;2022-07-15T03:42:52;4.82;;;2.05;;
11683;SDS011;5898;50.868;6.744;2022-07-15T03:45:19;6.55;;;2.40;;
11683;SDS011;5898;50.868;6.744;2022-07-15T03:47:46;4.82;;;1.95;;
11683;SDS011;5898;50.868;6.744;2022-07-15T03:50:13;6.95;;;2.72;;
11683;SDS011;5898;50.868;6.744;2022-07-15T03:52:39;7.85;;;2.00;;
11683;SDS011;5898;50.868;6.744;2022-07-15T03:55:08;5.97;;;1.95;;
11683;SDS011;5898;50.868;6.744;2022-07-15T03:57:36;5.75;;;2.30;;
11683;SDS011;5898;50.868;6.744;2022-07-15T04:00:03;2.97;;;1.85;;
11683;SDS011;5898;50.868;6.744;2022-07-15T04:02:31;6.97;;;2.47;;
11683;SDS011;5898;50.868;6.744;2022-07-15T04:04:58;6.03;;;2.40;;
11683;SDS011;5898;50.868;6.744;2022-07-15T04:07:25;2.80;;;2.28;;
11683;SDS011;5898;50.868;6.744;2022-07-15T04:09:51;6.93;;;2.65;;
11683;SDS011;5898;50.868;6.744;2022-07-15T04:12:19;5.60;;;2.60;;
11683;SDS011;5898;50.868;6.744;2022-07-15T04:14:46;7.20;;;2.65;;
11683;SDS011;5898;50.868;6.744;2022-07-15T04:17:13;3.95;;;2.13;;
11683;SDS011;5898;50.868;6.744;2022-07-15T04:19:40;4.30;;;2.08;;
11683;SDS011;5898;50.868;6.744;2022-07-15T04:22:06;5.15;;;2.40;;
11683;SDS011;5898;50.868;6.744;2022-07-15T04:24:33;4.65;;;2.72;;
11683;SDS011;5898;50.868;6.744;2022-07-15T04:27:00;5.35;;;2.28;;
11683;SDS011;5898;50.868;6.744;2022-07-15T04:29:28;5.20;;;2.45;;
11683;SDS011;5898;50.868;6.744;2022-07-15T04:31:55;3.55;;;2.25;;
11683;SDS011;5898;50.868;6.744;2022-07-15T04:34:22;7.55;;;2.78;;
11683;SDS011;5898;50.868;6.744;2022-07-15T04:36:48;7.13;;;2.83;;
11683;SDS011;5898;50.868;6.744;2022-07-15T04:39:15;3.85;;;2.58;;
11683;SDS011;5898;50.868;6.744;2022-07-15T04:41:42;5.78;;;2.95;;
11683;SDS011;5898;50.868;6.744;2022-07-15T04:44:09;7.55;;;3.35;;
11683;SDS011;5898;50.868;6.744;2022-07-15T04:46:37;4.22;;;2.47;;
11683;SDS011;5898;50.868;6.744;2022-07-15T04:49:04;8.15;;;2.92;;
11683;SDS011;5898;50.868;6.744;2022-07-15T04:51:48;4.45;;;2.10;;
11683;SDS011;5898;50.868;6.744;2022-07-15T04:54:15;6.50;;;2.58;;
11683;SDS011;5898;50.868;6.744;2022-07-15T04:56:41;4.43;;;2.65;;
11683;SDS011;5898;50.868;6.744;2022-07-15T04:59:08;5.50;;;3.38;;
11683;SDS011;5898;50.868;6.744;2022-07-15T05:01:35;9.30;;;2.80;;
11683;SDS011;5898;50.868;6.744;2022-07-15T05:04:03;3.35;;;2.05;;
11683;SDS011;5898;50.868;6.744;2022-07-15T05:06:30;7.30;;;3.17;;
11683;SDS011;5898;50.868;6.744;2022-07-15T05:08:57;9.73;;;3.55;;
11683;SDS011;5898;50.868;6.744;2022-07-15T05:11:24;3.58;;;2.53;;
11683;SDS011;5898;50.868;6.744;2022-07-15T05:13:50;8.05;;;3.65;;
11683;SDS011;5898;50.868;6.744;2022-07-15T05:16:18;9.23;;;3.65;;
11683;SDS011;5898;50.868;6.744;2022-07-15T05:18:45;13.70;;;4.03;;
11683;SDS011;5898;50.868;6.744;2022-07-15T05:21:13;9.23;;;3.25;;
11683;SDS011;5898;50.868;6.744;2022-07-15T05:23:40;8.30;;;2.88;;
11683;SDS011;5898;50.868;6.744;2022-07-15T05:26:07;6.72;;;3.08;;
11683;SDS011;5898;50.868;6.744;2022-07-15T05:28:36;5.43;;;2.60;;
11683;SDS011;5898;50.868;6.744;2022-07-15T05:31:04;7.18;;;3.50;;
11683;SDS011;5898;50.868;6.744;2022-07-15T05:33:31;6.93;;;3.55;;
11683;SDS011;5898;50.868;6.744;2022-07-15T05:35:58;7.20;;;3.55;;
11683;SDS011;5898;50.868;6.744;2022-07-15T05:38:26;6.28;;;3.47;;
11683;SDS011;5898;50.868;6.744;2022-07-15T05:40:53;7.75;;;3.30;;
11683;SDS011;5898;50.868;6.744;2022-07-15T05:43:20;5.50;;;3.35;;
11683;SDS011;5898;50.868;6.744;2022-07-15T05:45:47;8.27;;;3.40;;
11683;SDS011;5898;50.868;6.744;2022-07-15T05:48:13;12.20;;;3.20;;
11683;SDS011;5898;50.868;6.744;2022-07-15T05:50:40;9.18;;;3.25;;
11683;SDS011;5898;50.868;6.744;2022-07-15T05:53:07;4.65;;;2.88;;
11683;SDS011;5898;50.868;6.744;2022-07-15T05:55:35;6.88;;;3.72;;
11683;SDS011;5898;50.868;6.744;2022-07-15T05:58:04;8.00;;;3.00;;
11683;SDS011;5898;50.868;6.744;2022-07-15T06:00:32;5.82;;;2.80;;
11683;SDS011;5898;50.868;6.744;2022-07-15T06:02:59;8.80;;;3.58;;
11683;SDS011;5898;50.868;6.744;2022-07-15T06:05:25;8.20;;;2.85;;
11683;SDS011;5898;50.868;6.744;2022-07-15T06:07:52;6.60;;;3.40;;
11683;SDS011;5898;50.868;6.744;2022-07-15T06:10:19;11.27;;;3.88;;
11683;SDS011;5898;50.868;6.744;2022-07-15T06:12:48;9.48;;;3.25;;
11683;SDS011;5898;50.868;6.744;2022-07-15T06:15:15;11.52;;;3.85;;
11683;SDS011;5898;50.868;6.744;2022-07-15T06:17:41;9.98;;;3.08;;
11683;SDS011;5898;50.868;6.744;2022-07-15T06:20:08;6.20;;;3.17;;
11683;SDS011;5898;50.868;6.744;2022-07-15T06:22:36;9.65;;;3.92;;
11683;SDS011;5898;50.868;6.744;2022-07-15T06:25:03;11.10;;;3.90;;
11683;SDS011;5898;50.868;6.744;2022-07-15T06:27:30;9.35;;;3.22;;
11683;SDS011;5898;50.868;6.744;2022-07-15T06:29:59;6.78;;;3.30;;
11683;SDS011;5898;50.868;6.744;2022-07-15T06:32:25;9.32;;;3.22;;
11683;SDS011;5898;50.868;6.744;2022-07-15T06:34:53;6.45;;;2.88;;
11683;SDS011;5898;50.868;6.744;2022-07-15T06:37:19;5.68;;;3.25;;
11683;SDS011;5898;50.868;6.744;2022-07-15T06:39:46;5.57;;;3.35;;
11683;SDS011;5898;50.868;6.744;2022-07-15T06:42:13;7.00;;;3.90;;
11683;SDS011;5898;50.868;6.744;2022-07-15T06:44:40;7.05;;;2.83;;
11683;SDS011;5898;50.868;6.744;2022-07-15T06:47:08;4.60;;;2.88;;
11683;SDS011;5898;50.868;6.744;2022-07-15T06:49:35;4.45;;;2.70;;
11683;SDS011;5898;50.868;6.744;2022-07-15T06:52:02;4.97;;;2.92;;
11683;SDS011;5898;50.868;6.744;2022-07-15T06:54:30;12.02;;;3.20;;
11683;SDS011;5898;50.868;6.744;2022-07-15T06:56:57;5.50;;;2.85;;
11683;SDS011;5898;50.868;6.744;2022-07-15T06:59:24;5.15;;;2.47;;
11683;SDS011;5898;50.868;6.744;2022-07-15T07:01:52;5.63;;;2.58;;
11683;SDS011;5898;50.868;6.744;2022-07-15T07:04:20;8.80;;;2.70;;
11683;SDS011;5898;50.868;6.744;2022-07-15T07:06:46;7.35;;;3.20;;
11683;SDS011;5898;50.868;6.744;2022-07-15T07:09:13;12.82;;;3.70;;
11683;SDS011;5898;50.868;6.744;2022-07-15T07:11:40;7.13;;;2.80;;
11683;SDS011;5898;50.868;6.744;2022-07-15T07:14:07;8.90;;;3.42;;
11683;SDS011;5898;50.868;6.744;2022-07-15T07:16:34;4.65;;;2.40;;
11683;SDS011;5898;50.868;6.744;2022-07-15T07:19:01;6.40;;;2.20;;
11683;SDS011;5898;50.868;6.744;2022-07-15T07:21:29;8.85;;;2.60;;
11683;SDS011;5898;50.868;6.744;2022-07-15T07:23:56;7.05;;;2.30;;
11683;SDS011;5898;50.868;6.744;2022-07-15T07:26:23;9.98;;;2.38;;
11683;SDS011;5898;50.868;6.744;2022-07-15T07:28:50;4.25;;;1.80;;
11683;SDS011;5898;50.868;6.744;2022-07-15T07:31:16;7.57;;;1.42;;
11683;SDS011;5898;50.868;6.744;2022-07-15T07:33:48;7.43;;;2.47;;
11683;SDS011;5898;50.868;6.744;2022-07-15T07:36:14;6.70;;;2.00;;
11683;SDS011;5898;50.868;6.744;2022-07-15T07:38:42;3.75;;;1.73;;
11683;SDS011;5898;50.868;6.744;2022-07-15T07:41:09;3.70;;;1.33;;
11683;SDS011;5898;50.868;6.744;2022-07-15T07:43:36;4.65;;;1.42;;
11683;SDS011;5898;50.868;6.744;2022-07-15T07:46:04;7.07;;;1.60;;
11683;SDS011;5898;50.868;6.744;2022-07-15T07:48:31;3.80;;;1.42;;
11683;SDS011;5898;50.868;6.744;2022-07-15T07:50:58;3.92;;;1.73;;
11683;SDS011;5898;50.868;6.744;2022-07-15T07:53:25;2.25;;;1.15;;
11683;SDS011;5898;50.868;6.744;2022-07-15T07:55:54;5.97;;;1.40;;
11683;SDS011;5898;50.868;6.744;2022-07-15T07:58:21;1.60;;;0.98;;
11683;SDS011;5898;50.868;6.744;2022-07-15T08:00:48;3.53;;;1.00;;
11683;SDS011;5898;50.868;6.744;2022-07-15T08:03:17;2.88;;;1.10;;
11683;SDS011;5898;50.868;6.744;2022-07-15T08:05:44;1.95;;;1.00;;
11683;SDS011;5898;50.868;6.744;2022-07-15T08:08:12;3.08;;;0.90;;
11683;SDS011;5898;50.868;6.744;2022-07-15T08:10:42;2.17;;;0.90;;
11683;SDS011;5898;50.868;6.744;2022-07-15T08:13:11;3.85;;;0.95;;
11683;SDS011;5898;50.868;6.744;2022-07-15T08:15:39;5.72;;;1.35;;
11683;SDS011;5898;50.868;6.744;2022-07-15T08:18:06;4.57;;;1.38;;
11683;SDS011;5898;50.868;6.744;2022-07-15T08:20:33;1.50;;;0.98;;
11683;SDS011;5898;50.868;6.744;2022-07-15T08:23:01;1.55;;;0.95;;
11683;SDS011;5898;50.868;6.744;2022-07-15T08:25:29;4.35;;;0.90;;
11683;SDS011;5898;50.868;6.744;2022-07-15T08:27:57;3.00;;;1.50;;
11683;SDS011;5898;50.868;6.744;2022-07-15T08:30:26;3.28;;;1.00;;
11683;SDS011;5898;50.868;6.744;2022-07-15T08:32:54;2.50;;;1.10;;
11683;SDS011;5898;50.868;6.744;2022-07-15T08:35:21;1.58;;;0.90;;
11683;SDS011;5898;50.868;6.744;2022-07-15T08:37:49;2.53;;;1.08;;
11683;SDS011;5898;50.868;6.744;2022-07-15T08:40:16;3.45;;;1.10;;
11683;SDS011;5898;50.868;6.744;2022-07-15T08:42:43;2.60;;;0.95;;
11683;SDS011;5898;50.868;6.744;2022-07-15T08:45:11;1.35;;;1.00;;
11683;SDS011;5898;50.868;6.744;2022-07-15T08:47:42;3.65;;;1.25;;
11683;SDS011;5898;50.868;6.744;2022-07-15T08:50:12;6.38;;;1.45;;
11683;SDS011;5898;50.868;6.744;2022-07-15T08:52:41;4.15;;;1.25;;
11683;SDS011;5898;50.868;6.744;2022-07-15T08:55:09;6.15;;;1.20;;
11683;SDS011;5898;50.868;6.744;2022-07-15T08:57:37;2.80;;;1.30;;
11683;SDS011;5898;50.868;6.744;2022-07-15T09:00:04;4.28;;;1.58;;
11683;SDS011;5898;50.868;6.744;2022-07-15T09:02:35;2.67;;;1.10;;
11683;SDS011;5898;50.868;6.744;2022-07-15T09:05:20;2.58;;;1.10;;
11683;SDS011;5898;50.868;6.744;2022-07-15T09:07:50;2.55;;;1.00;;
11683;SDS011;5898;50.868;6.744;2022-07-15T09:10:18;2.25;;;1.20;;
11683;SDS011;5898;50.868;6.744;2022-07-15T09:12:48;1.15;;;1.05;;
11683;SDS011;5898;50.868;6.744;2022-07-15T09:15:28;2.50;;;1.40;;
11683;SDS011;5898;50.868;6.744;2022-07-15T09:18:03;3.15;;;1.02;;
11683;SDS011;5898;50.868;6.744;2022-07-15T09:20:32;1.38;;;1.20;;
11683;SDS011;5898;50.868;6.744;2022-07-15T09:23:00;3.67;;;1.40;;
11683;SDS011;5898;50.868;6.744;2022-07-15T09:25:28;1.50;;;1.10;;
11683;SDS011;5898;50.868;6.744;2022-07-15T09:27:58;6.03;;;1.95;;
11683;SDS011;5898;50.868;6.744;2022-07-15T09:30:27;1.70;;;1.55;;
11683;SDS011;5898;50.868;6.744;2022-07-15T09:33:14;4.07;;;1.77;;
11683;SDS011;5898;50.868;6.744;2022-07-15T09:36:06;6.18;;;1.90;;
11683;SDS011;5898;50.868;6.744;2022-07-15T09:38:37;5.13;;;1.60;;
11683;SDS011;5898;50.868;6.744;2022-07-15T09:41:07;4.45;;;1.63;;
11683;SDS011;5898;50.868;6.744;2022-07-15T09:43:42;1.67;;;1.00;;
11683;SDS011;5898;50.868;6.744;2022-07-15T09:46:10;2.58;;;1.42;;
11683;SDS011;5898;50.868;6.744;2022-07-15T09:48:40;1.38;;;1.10;;
11683;SDS011;5898;50.868;6.744;2022-07-15T09:51:09;3.42;;;1.40;;
11683;SDS011;5898;50.868;6.744;2022-07-15T09:53:37;3.78;;;1.27;;
11683;SDS011;5898;50.868;6.744;2022-07-15T09:56:06;1.98;;;1.00;;
11683;SDS011;5898;50.868;6.744;2022-07-15T09:58:36;1.58;;;1.05;;
11683;SDS011;5898;50.868;6.744;2022-07-15T10:01:05;1.20;;;0.95;;
11683;SDS011;5898;50.868;6.744;2022-07-15T10:03:32;5.18;;;1.13;;
11683;SDS011;5898;50.868;6.744;2022-07-15T10:05:59;4.45;;;1.33;;
11683;SDS011;5898;50.868;6.744;2022-07-15T10:08:29;2.63;;;1.10;;
11683;SDS011;5898;50.868;6.744;2022-07-15T10:10:56;3.20;;;1.02;;
11683;SDS011;5898;50.868;6.744;2022-07-15T10:13:42;3.05;;;1.10;;
11683;SDS011;5898;50.868;6.744;2022-07-15T10:16:36;3.63;;;1.25;;
11683;SDS011;5898;50.868;6.744;2022-07-15T10:19:30;2.90;;;1.25;;
11683;SDS011;5898;50.868;6.744;2022-07-15T10:22:13;2.58;;;1.35;;
11683;SDS011;5898;50.868;6.744;2022-07-15T10:24:54;2.10;;;0.95;;
11683;SDS011;5898;50.868;6.744;2022-07-15T10:27:37;3.08;;;1.10;;
11683;SDS011;5898;50.868;6.744;2022-07-15T10:30:11;2.63;;;1.15;;
11683;SDS011;5898;50.868;6.744;2022-07-15T10:35:36;2.67;;;1.23;;
11683;SDS011;5898;50.868;6.744;2022-07-15T10:38:19;3.75;;;1.52;;
11683;SDS011;5898;50.868;6.744;2022-07-15T10:41:02;3.40;;;1.10;;
11683;SDS011;5898;50.868;6.744;2022-07-15T10:43:37;2.67;;;1.13;;
11683;SDS011;5898;50.868;6.744;2022-07-15T10:46:16;1.63;;;1.13;;
11683;SDS011;5898;50.868;6.744;2022-07-15T10:48:52;2.65;;;1.40;;
11683;SDS011;5898;50.868;6.744;2022-07-15T10:51:42;4.47;;;1.45;;
11683;SDS011;5898;50.868;6.744;2022-07-15T10:54:36;3.95;;;1.55;;
11683;SDS011;5898;50.868;6.744;2022-07-15T10:57:07;3.33;;;1.30;;
11683;SDS011;5898;50.868;6.744;2022-07-15T10:59:35;2.45;;;1.15;;
11683;SDS011;5898;50.868;6.744;2022-07-15T11:02:10;3.63;;;1.27;;
11683;SDS011;5898;50.868;6.744;2022-07-15T11:04:38;2.35;;;0.90;;
11683;SDS011;5898;50.868;6.744;2022-07-15T11:09:54;2.25;;;1.20;;
11683;SDS011;5898;50.868;6.744;2022-07-15T11:12:23;3.00;;;1.20;;
11683;SDS011;5898;50.868;6.744;2022-07-15T11:15:10;3.97;;;1.15;;
11683;SDS011;5898;50.868;6.744;2022-07-15T11:17:39;4.45;;;1.52;;
11683;SDS011;5898;50.868;6.744;2022-07-15T11:20:08;3.15;;;1.42;;
11683;SDS011;5898;50.868;6.744;2022-07-15T11:22:37;3.67;;;1.30;;
11683;SDS011;5898;50.868;6.744;2022-07-15T11:25:05;2.10;;;1.17;;
11683;SDS011;5898;50.868;6.744;2022-07-15T11:27:53;2.42;;;1.15;;
11683;SDS011;5898;50.868;6.744;2022-07-15T11:30:29;2.35;;;0.90;;
11683;SDS011;5898;50.868;6.744;2022-07-15T11:32:58;2.08;;;0.95;;
11683;SDS011;5898;50.868;6.744;2022-07-15T11:35:26;2.70;;;1.17;;
11683;SDS011;5898;50.868;6.744;2022-07-15T11:37:59;3.25;;;1.13;;
11683;SDS011;5898;50.868;6.744;2022-07-15T11:40:27;3.22;;;1.15;;
11683;SDS011;5898;50.868;6.744;2022-07-15T11:43:14;3.15;;;1.65;;
11683;SDS011;5898;50.868;6.744;2022-07-15T11:46:01;3.47;;;1.52;;
11683;SDS011;5898;50.868;6.744;2022-07-15T11:48:34;4.85;;;1.35;;
11683;SDS011;5898;50.868;6.744;2022-07-15T11:51:02;1.75;;;1.00;;
11683;SDS011;5898;50.868;6.744;2022-07-15T11:53:33;3.88;;;1.05;;
11683;SDS011;5898;50.868;6.744;2022-07-15T11:56:02;5.32;;;1.85;;
11683;SDS011;5898;50.868;6.744;2022-07-15T11:58:31;4.03;;;1.20;;
11683;SDS011;5898;50.868;6.744;2022-07-15T12:00:59;3.05;;;1.30;;
11683;SDS011;5898;50.868;6.744;2022-07-15T12:03:31;6.45;;;1.60;;
11683;SDS011;5898;50.868;6.744;2022-07-15T12:06:02;2.97;;;1.27;;
11683;SDS011;5898;50.868;6.744;2022-07-15T12:08:35;3.17;;;1.00;;
11683;SDS011;5898;50.868;6.744;2022-07-15T12:11:15;3.65;;;0.98;;
11683;SDS011;5898;50.868;6.744;2022-07-15T12:13:46;2.30;;;1.27;;
11683;SDS011;5898;50.868;6.744;2022-07-15T12:16:20;2.53;;;1.20;;
11683;SDS011;5898;50.868;6.744;2022-07-15T12:18:50;3.53;;;1.20;;
11683;SDS011;5898;50.868;6.744;2022-07-15T12:21:19;5.35;;;1.00;;
11683;SDS011;5898;50.868;6.744;2022-07-15T12:24:03;2.50;;;0.93;;
11683;SDS011;5898;50.868;6.744;2022-07-15T12:26:33;1.70;;;1.00;;
11683;SDS011;5898;50.868;6.744;2022-07-15T12:29:05;2.60;;;1.30;;
11683;SDS011;5898;50.868;6.744;2022-07-15T12:31:35;1.73;;;1.10;;
11683;SDS011;5898;50.868;6.744;2022-07-15T12:34:03;3.33;;;1.30;;
11683;SDS011;5898;50.868;6.744;2022-07-15T12:36:32;3.38;;;0.98;;
11683;SDS011;5898;50.868;6.744;2022-07-15T12:39:06;2.63;;;1.20;;
11683;SDS011;5898;50.868;6.744;2022-07-15T12:41:39;1.83;;;1.00;;
11683;SDS011;5898;50.868;6.744;2022-07-15T12:44:08;2.03;;;0.90;;
11683;SDS011;5898;50.868;6.744;2022-07-15T12:49:42;2.67;;;1.20;;
11683;SDS011;5898;50.868;6.744;2022-07-15T12:55:11;5.90;;;1.52;;
11683;SDS011;5898;50.868;6.744;2022-07-15T12:57:39;2.92;;;1.00;;
11683;SDS011;5898;50.868;6.744;2022-07-15T13:00:10;6.65;;;1.20;;
11683;SDS011;5898;50.868;6.744;2022-07-15T13:02:54;3.05;;;1.20;;
11683;SDS011;5898;50.868;6.744;2022-07-15T13:05:23;1.65;;;0.93;;
11683;SDS011;5898;50.868;6.744;2022-07-15T13:07:50;1.63;;;0.80;;
11683;SDS011;5898;50.868;6.744;2022-07-15T13:10:17;1.85;;;0.95;;
11683;SDS011;5898;50.868;6.744;2022-07-15T13:12:44;2.50;;;1.10;;
11683;SDS011;5898;50.868;6.744;2022-07-15T13:15:12;4.35;;;1.30;;
11683;SDS011;5898;50.868;6.744;2022-07-15T13:17:39;2.70;;;1.20;;
11683;SDS011;5898;50.868;6.744;2022-07-15T13:20:06;2.83;;;1.02;;
11683;SDS011;5898;50.868;6.744;2022-07-15T13:22:34;1.67;;;1.08;;
11683;SDS011;5898;50.868;6.744;2022-07-15T13:25:01;4.15;;;1.10;;
11683;SDS011;5898;50.868;6.744;2022-07-15T13:27:28;1.52;;;1.05;;
11683;SDS011;5898;50.868;6.744;2022-07-15T13:29:55;3.00;;;1.30;;
11683;SDS011;5898;50.868;6.744;2022-07-15T13:32:23;1.73;;;1.13;;
11683;SDS011;5898;50.868;6.744;2022-07-15T13:34:49;3.08;;;1.00;;
11683;SDS011;5898;50.868;6.744;2022-07-15T13:37:16;2.90;;;0.77;;
11683;SDS011;5898;50.868;6.744;2022-07-15T13:39:43;2.58;;;1.08;;
11683;SDS011;5898;50.868;6.744;2022-07-15T13:42:10;2.22;;;0.95;;
11683;SDS011;5898;50.868;6.744;2022-07-15T13:44:37;2.83;;;0.85;;
11683;SDS011;5898;50.868;6.744;2022-07-15T13:47:03;1.48;;;0.70;;
11683;SDS011;5898;50.868;6.744;2022-07-15T13:49:31;2.05;;;1.02;;
11683;SDS011;5898;50.868;6.744;2022-07-15T13:52:16;0.88;;;0.80;;
11683;SDS011;5898;50.868;6.744;2022-07-15T13:54:43;1.88;;;1.08;;
11683;SDS011;5898;50.868;6.744;2022-07-15T13:57:10;2.65;;;0.88;;
11683;SDS011;5898;50.868;6.744;2022-07-15T13:59:37;2.65;;;1.00;;
11683;SDS011;5898;50.868;6.744;2022-07-15T14:02:04;2.65;;;1.40;;
11683;SDS011;5898;50.868;6.744;2022-07-15T14:04:32;1.30;;;0.90;;
11683;SDS011;5898;50.868;6.744;2022-07-15T14:06:59;2.88;;;0.88;;
11683;SDS011;5898;50.868;6.744;2022-07-15T14:09:26;2.67;;;0.98;;
11683;SDS011;5898;50.868;6.744;2022-07-15T14:11:53;1.15;;;0.90;;
11683;SDS011;5898;50.868;6.744;2022-07-15T14:14:20;2.35;;;1.38;;
11683;SDS011;5898;50.868;6.744;2022-07-15T14:16:47;4.20;;;0.88;;
11683;SDS011;5898;50.868;6.744;2022-07-15T14:19:14;1.60;;;0.70;;
11683;SDS011;5898;50.868;6.744;2022-07-15T14:21:42;2.85;;;1.15;;
11683;SDS011;5898;50.868;6.744;2022-07-15T14:24:09;2.67;;;1.02;;
11683;SDS011;5898;50.868;6.744;2022-07-15T14:26:36;1.20;;;0.70;;
11683;SDS011;5898;50.868;6.744;2022-07-15T14:29:03;2.20;;;1.10;;
11683;SDS011;5898;50.868;6.744;2022-07-15T14:31:30;2.95;;;1.67;;
11683;SDS011;5898;50.868;6.744;2022-07-15T14:33:57;6.43;;;1.35;;
11683;SDS011;5898;50.868;6.744;2022-07-15T14:36:24;3.72;;;1.25;;
11683;SDS011;5898;50.868;6.744;2022-07-15T14:38:52;2.78;;;1.30;;
11683;SDS011;5898;50.868;6.744;2022-07-15T14:41:19;2.25;;;1.25;;
11683;SDS011;5898;50.868;6.744;2022-07-15T14:43:45;2.83;;;0.88;;
11683;SDS011;5898;50.868;6.744;2022-07-15T14:46:12;5.97;;;1.40;;
11683;SDS011;5898;50.868;6.744;2022-07-15T14:48:39;2.50;;;0.95;;
11683;SDS011;5898;50.868;6.744;2022-07-15T14:51:06;2.00;;;0.90;;
11683;SDS011;5898;50.868;6.744;2022-07-15T14:53:33;5.53;;;1.02;;
11683;SDS011;5898;50.868;6.744;2022-07-15T14:56:01;2.42;;;2.10;;
11683;SDS011;5898;50.868;6.744;2022-07-15T14:58:28;1.80;;;1.27;;
11683;SDS011;5898;50.868;6.744;2022-07-15T15:00:55;2.58;;;1.27;;
11683;SDS011;5898;50.868;6.744;2022-07-15T15:03:22;2.88;;;0.80;;
11683;SDS011;5898;50.868;6.744;2022-07-15T15:05:49;2.53;;;0.85;;
11683;SDS011;5898;50.868;6.744;2022-07-15T15:08:16;2.00;;;0.77;;
11683;SDS011;5898;50.868;6.744;2022-07-15T15:10:43;2.67;;;0.95;;
11683;SDS011;5898;50.868;6.744;2022-07-15T15:13:11;4.45;;;1.02;;
11683;SDS011;5898;50.868;6.744;2022-07-15T15:15:38;2.97;;;1.00;;
11683;SDS011;5898;50.868;6.744;2022-07-15T15:18:05;4.13;;;1.10;;
11683;SDS011;5898;50.868;6.744;2022-07-15T15:20:32;3.58;;;0.90;;
11683;SDS011;5898;50.868;6.744;2022-07-15T15:22:59;3.17;;;0.90;;